sensor_id;sensor_type;location;lat;lon;timestamp;pressure;altitude;pressure_sealevel;temperature;humidity
45872;BME280;32333;55.844;-3.210;2023-04-08T00:01:50;100383.35;;;4.51;100.00
45872;BME280;32333;55.844;-3.210;2023-04-08T00:04:18;100383.47;;;4.70;100.00
45872;BME280;32333;55.844;-3.210;2023-04-08T00:06:46;100384.54;;;4.53;100.00
45872;BME280;32333;55.844;-3.210;2023-04-08T00:09:13;100384.20;;;4.37;100.00
45872;BME280;32333;55.844;-3.210;2023-04-08T00:11:41;100383.28;;;5.21;100.00
45872;BME280;32333;55.844;-3.210;2023-04-08T00:14:36;100388.67;;;3.60;100.00
45872;BME280;32333;55.844;-3.210;2023-04-08T00:17:03;100396.46;;;3.05;100.00
45872;BME280;32333;55.844;-3.210;2023-04-08T00:19:31;100384.93;;;3.09;100.00
45872;BME280;32333;55.844;-3.210;2023-04-08T00:21:59;100381.95;;;2.48;100.00
45872;BME280;32333;55.844;-3.210;2023-04-08T00:24:28;100385.79;;;4.70;100.00
45872;BME280;32333;55.844;-3.210;2023-04-08T00:26:55;100383.59;;;4.20;100.00
45872;BME280;32333;55.844;-3.210;2023-04-08T00:29:23;100382.69;;;5.29;100.00
45872;BME280;32333;55.844;-3.210;2023-04-08T00:31:51;100380.34;;;4.88;100.00
45872;BME280;32333;55.844;-3.210;2023-04-08T00:34:19;100381.82;;;4.27;100.00
45872;BME280;32333;55.844;-3.210;2023-04-08T00:36:46;100379.56;;;4.07;100.00
45872;BME280;32333;55.844;-3.210;2023-04-08T00:39:14;100380.09;;;4.96;100.00
45872;BME280;32333;55.844;-3.210;2023-04-08T00:41:41;100382.54;;;3.39;100.00
45872;BME280;32333;55.844;-3.210;2023-04-08T00:44:35;100383.51;;;3.60;100.00
45872;BME280;32333;55.844;-3.210;2023-04-08T00:47:04;100383.42;;;2.86;100.00
45872;BME280;32333;55.844;-3.210;2023-04-08T00:49:31;100384.26;;;3.18;100.00
45872;BME280;32333;55.844;-3.210;2023-04-08T00:51:59;100382.04;;;3.80;100.00
45872;BME280;32333;55.844;-3.210;2023-04-08T00:54:27;100381.70;;;3.33;100.00
45872;BME280;32333;55.844;-3.210;2023-04-08T00:56:55;100376.39;;;3.74;100.00
45872;BME280;32333;55.844;-3.210;2023-04-08T00:59:23;100381.13;;;2.56;100.00
45872;BME280;32333;55.844;-3.210;2023-04-08T01:02:02;100377.11;;;3.38;100.00
45872;BME280;32333;55.844;-3.210;2023-04-08T01:04:43;100378.75;;;3.23;100.00
45872;BME280;32333;55.844;-3.210;2023-04-08T01:07:17;100377.51;;;3.32;100.00
45872;BME280;32333;55.844;-3.210;2023-04-08T01:09:46;100367.46;;;3.81;100.00
45872;BME280;32333;55.844;-3.210;2023-04-08T01:14:41;100372.22;;;3.24;100.00
45872;BME280;32333;55.844;-3.210;2023-04-08T01:17:11;100364.34;;;3.84;100.00
45872;BME280;32333;55.844;-3.210;2023-04-08T01:19:39;100371.40;;;1.85;100.00
45872;BME280;32333;55.844;-3.210;2023-04-08T01:22:22;100372.21;;;2.31;100.00
45872;BME280;32333;55.844;-3.210;2023-04-08T01:24:56;100365.67;;;3.45;100.00
45872;BME280;32333;55.844;-3.210;2023-04-08T01:27:26;100370.23;;;2.72;100.00
45872;BME280;32333;55.844;-3.210;2023-04-08T01:29:55;100369.11;;;3.81;100.00
45872;BME280;32333;55.844;-3.210;2023-04-08T01:32:24;100366.86;;;3.96;100.00
45872;BME280;32333;55.844;-3.210;2023-04-08T01:34:54;100367.63;;;3.37;100.00
45872;BME280;32333;55.844;-3.210;2023-04-08T01:37:24;100368.39;;;2.30;100.00
45872;BME280;32333;55.844;-3.210;2023-04-08T01:39:53;100369.15;;;2.91;100.00
45872;BME280;32333;55.844;-3.210;2023-04-08T01:44:36;100373.90;;;2.30;100.00
45872;BME280;32333;55.844;-3.210;2023-04-08T01:47:04;100373.00;;;3.37;100.00
45872;BME280;32333;55.844;-3.210;2023-04-08T01:49:31;100371.26;;;2.90;100.00
45872;BME280;32333;55.844;-3.210;2023-04-08T01:52:00;100370.12;;;4.00;100.00
45872;BME280;32333;55.844;-3.210;2023-04-08T01:54:28;100370.07;;;4.39;100.00
45872;BME280;32333;55.844;-3.210;2023-04-08T01:56:56;100375.38;;;2.30;100.00
45872;BME280;32333;55.844;-3.210;2023-04-08T01:59:28;100375.62;;;3.27;100.00
45872;BME280;32333;55.844;-3.210;2023-04-08T02:01:58;100374.54;;;2.77;100.00
45872;BME280;32333;55.844;-3.210;2023-04-08T02:04:27;100374.67;;;3.49;100.00
45872;BME280;32333;55.844;-3.210;2023-04-08T02:06:56;100367.88;;;4.18;100.00
45872;BME280;32333;55.844;-3.210;2023-04-08T02:09:24;100367.92;;;3.42;100.00
45872;BME280;32333;55.844;-3.210;2023-04-08T02:11:52;100365.23;;;4.30;100.00
45872;BME280;32333;55.844;-3.210;2023-04-08T02:14:36;100364.77;;;3.78;100.00
45872;BME280;32333;55.844;-3.210;2023-04-08T02:17:09;100365.09;;;3.77;100.00
45872;BME280;32333;55.844;-3.210;2023-04-08T02:19:43;100367.39;;;4.73;100.00
45872;BME280;32333;55.844;-3.210;2023-04-08T02:22:18;100376.49;;;3.49;100.00
45872;BME280;32333;55.844;-3.210;2023-04-08T02:24:49;100377.02;;;3.27;100.00
45872;BME280;32333;55.844;-3.210;2023-04-08T02:27:17;100375.87;;;2.98;100.00
45872;BME280;32333;55.844;-3.210;2023-04-08T02:29:46;100376.58;;;3.10;100.00
45872;BME280;32333;55.844;-3.210;2023-04-08T02:32:16;100378.44;;;2.58;100.00
45872;BME280;32333;55.844;-3.210;2023-04-08T02:34:44;100377.65;;;4.14;100.00
45872;BME280;32333;55.844;-3.210;2023-04-08T02:37:14;100383.61;;;3.13;100.00
45872;BME280;32333;55.844;-3.210;2023-04-08T02:39:41;100379.98;;;4.24;100.00
45872;BME280;32333;55.844;-3.210;2023-04-08T02:44:35;100382.13;;;4.46;100.00
45872;BME280;32333;55.844;-3.210;2023-04-08T02:47:03;100383.26;;;5.53;100.00
45872;BME280;32333;55.844;-3.210;2023-04-08T02:49:31;100390.77;;;4.65;100.00
45872;BME280;32333;55.844;-3.210;2023-04-08T02:51:59;100390.83;;;4.72;100.00
45872;BME280;32333;55.844;-3.210;2023-04-08T02:54:27;100394.89;;;3.76;100.00
45872;BME280;32333;55.844;-3.210;2023-04-08T02:56:55;100396.75;;;4.43;100.00
45872;BME280;32333;55.844;-3.210;2023-04-08T02:59:22;100397.50;;;4.39;100.00
45872;BME280;32333;55.844;-3.210;2023-04-08T03:01:50;100399.21;;;3.58;100.00
45872;BME280;32333;55.844;-3.210;2023-04-08T03:04:17;100395.47;;;4.77;100.00
45872;BME280;32333;55.844;-3.210;2023-04-08T03:06:45;100397.61;;;5.30;100.00
45872;BME280;32333;55.844;-3.210;2023-04-08T03:09:13;100398.19;;;5.01;100.00
45872;BME280;32333;55.844;-3.210;2023-04-08T03:11:41;100397.95;;;4.87;100.00
45872;BME280;32333;55.844;-3.210;2023-04-08T03:14:35;100398.47;;;4.65;100.00
45872;BME280;32333;55.844;-3.210;2023-04-08T03:17:02;100396.14;;;4.42;100.00
45872;BME280;32333;55.844;-3.210;2023-04-08T03:19:30;100399.90;;;2.96;100.00
45872;BME280;32333;55.844;-3.210;2023-04-08T03:21:57;100394.09;;;4.41;100.00
45872;BME280;32333;55.844;-3.210;2023-04-08T03:24:25;100392.03;;;4.65;100.00
45872;BME280;32333;55.844;-3.210;2023-04-08T03:26:52;100400.32;;;3.97;100.00
45872;BME280;32333;55.844;-3.210;2023-04-08T03:29:20;100398.06;;;4.30;100.00
45872;BME280;32333;55.844;-3.210;2023-04-08T03:31:48;100404.95;;;3.29;100.00
45872;BME280;32333;55.844;-3.210;2023-04-08T03:34:16;100399.28;;;4.74;100.00
45872;BME280;32333;55.844;-3.210;2023-04-08T03:36:43;100398.14;;;5.22;100.00
45872;BME280;32333;55.844;-3.210;2023-04-08T03:39:10;100397.70;;;4.02;100.00
45872;BME280;32333;55.844;-3.210;2023-04-08T03:41:39;100400.26;;;3.81;100.00
45872;BME280;32333;55.844;-3.210;2023-04-08T03:44:35;100400.31;;;4.40;100.00
45872;BME280;32333;55.844;-3.210;2023-04-08T03:47:03;100398.48;;;4.98;100.00
45872;BME280;32333;55.844;-3.210;2023-04-08T03:49:30;100400.60;;;5.49;100.00
45872;BME280;32333;55.844;-3.210;2023-04-08T03:51:58;100400.63;;;3.51;100.00
45872;BME280;32333;55.844;-3.210;2023-04-08T03:54:26;100404.04;;;2.31;100.00
45872;BME280;32333;55.844;-3.210;2023-04-08T03:56:53;100397.98;;;3.81;100.00
45872;BME280;32333;55.844;-3.210;2023-04-08T03:59:21;100396.24;;;4.32;100.00
45872;BME280;32333;55.844;-3.210;2023-04-08T04:01:49;100395.96;;;4.06;100.00
45872;BME280;32333;55.844;-3.210;2023-04-08T04:04:17;100399.65;;;4.06;100.00
45872;BME280;32333;55.844;-3.210;2023-04-08T04:06:45;100396.23;;;4.07;100.00
45872;BME280;32333;55.844;-3.210;2023-04-08T04:09:12;100400.43;;;3.71;100.00
45872;BME280;32333;55.844;-3.210;2023-04-08T04:11:39;100403.88;;;4.08;100.00
45872;BME280;32333;55.844;-3.210;2023-04-08T04:14:38;100412.96;;;3.70;100.00
45872;BME280;32333;55.844;-3.210;2023-04-08T04:17:06;100413.58;;;3.87;100.00
45872;BME280;32333;55.844;-3.210;2023-04-08T04:19:33;100408.21;;;3.80;100.00
45872;BME280;32333;55.844;-3.210;2023-04-08T04:22:00;100405.07;;;3.81;100.00
45872;BME280;32333;55.844;-3.210;2023-04-08T04:24:27;100409.68;;;3.60;100.00
45872;BME280;32333;55.844;-3.210;2023-04-08T04:26:56;100408.49;;;3.58;100.00
45872;BME280;32333;55.844;-3.210;2023-04-08T04:29:24;100408.26;;;2.90;100.00
45872;BME280;32333;55.844;-3.210;2023-04-08T04:31:51;100402.89;;;4.34;100.00
45872;BME280;32333;55.844;-3.210;2023-04-08T04:34:18;100399.92;;;4.85;100.00
45872;BME280;32333;55.844;-3.210;2023-04-08T04:36:45;100403.43;;;3.35;100.00
45872;BME280;32333;55.844;-3.210;2023-04-08T04:39:12;100400.89;;;4.42;100.00
45872;BME280;32333;55.844;-3.210;2023-04-08T04:41:41;100405.11;;;3.88;100.00
45872;BME280;32333;55.844;-3.210;2023-04-08T04:44:35;100415.27;;;3.71;100.00
45872;BME280;32333;55.844;-3.210;2023-04-08T04:47:03;100413.52;;;2.82;100.00
45872;BME280;32333;55.844;-3.210;2023-04-08T04:49:31;100412.21;;;2.40;100.00
45872;BME280;32333;55.844;-3.210;2023-04-08T04:51:58;100415.45;;;3.17;100.00
45872;BME280;32333;55.844;-3.210;2023-04-08T04:54:27;100419.46;;;2.93;100.00
45872;BME280;32333;55.844;-3.210;2023-04-08T04:56:54;100420.43;;;2.96;100.00
45872;BME280;32333;55.844;-3.210;2023-04-08T04:59:21;100423.91;;;3.07;100.00
45872;BME280;32333;55.844;-3.210;2023-04-08T05:01:49;100417.06;;;1.90;100.00
45872;BME280;32333;55.844;-3.210;2023-04-08T05:04:17;100422.05;;;0.42;100.00
45872;BME280;32333;55.844;-3.210;2023-04-08T05:06:44;100422.96;;;4.18;100.00
45872;BME280;32333;55.844;-3.210;2023-04-08T05:09:12;100425.34;;;3.27;100.00
45872;BME280;32333;55.844;-3.210;2023-04-08T05:11:39;100424.19;;;2.25;100.00
45872;BME280;32333;55.844;-3.210;2023-04-08T05:14:36;100429.42;;;2.24;100.00
45872;BME280;32333;55.844;-3.210;2023-04-08T05:17:03;100431.23;;;2.87;100.00
45872;BME280;32333;55.844;-3.210;2023-04-08T05:19:31;100430.43;;;3.01;100.00
45872;BME280;32333;55.844;-3.210;2023-04-08T05:21:59;100433.88;;;2.79;100.00
45872;BME280;32333;55.844;-3.210;2023-04-08T05:24:27;100437.04;;;2.92;100.00
45872;BME280;32333;55.844;-3.210;2023-04-08T05:26:54;100438.98;;;2.72;100.00
45872;BME280;32333;55.844;-3.210;2023-04-08T05:29:22;100439.23;;;2.23;100.00
45872;BME280;32333;55.844;-3.210;2023-04-08T05:31:50;100440.69;;;1.82;100.00
45872;BME280;32333;55.844;-3.210;2023-04-08T05:34:17;100438.23;;;1.24;100.00
45872;BME280;32333;55.844;-3.210;2023-04-08T05:36:45;100442.35;;;1.09;100.00
45872;BME280;32333;55.844;-3.210;2023-04-08T05:39:13;100440.59;;;2.22;100.00
45872;BME280;32333;55.844;-3.210;2023-04-08T05:41:41;100439.07;;;2.78;100.00
45872;BME280;32333;55.844;-3.210;2023-04-08T05:44:36;100438.64;;;2.49;100.00
45872;BME280;32333;55.844;-3.210;2023-04-08T05:47:03;100442.36;;;2.73;100.00
45872;BME280;32333;55.844;-3.210;2023-04-08T05:49:32;100445.35;;;2.48;100.00
45872;BME280;32333;55.844;-3.210;2023-04-08T05:52:00;100452.84;;;1.82;100.00
45872;BME280;32333;55.844;-3.210;2023-04-08T05:54:28;100454.97;;;2.42;100.00
45872;BME280;32333;55.844;-3.210;2023-04-08T05:56:55;100458.94;;;1.51;100.00
45872;BME280;32333;55.844;-3.210;2023-04-08T05:59:23;100457.94;;;2.73;100.00
45872;BME280;32333;55.844;-3.210;2023-04-08T06:01:51;100458.35;;;2.70;100.00
45872;BME280;32333;55.844;-3.210;2023-04-08T06:04:19;100461.61;;;2.25;100.00
45872;BME280;32333;55.844;-3.210;2023-04-08T06:06:46;100464.34;;;1.92;100.00
45872;BME280;32333;55.844;-3.210;2023-04-08T06:09:15;100464.41;;;2.63;100.00
45872;BME280;32333;55.844;-3.210;2023-04-08T06:11:42;100466.66;;;2.42;100.00
45872;BME280;32333;55.844;-3.210;2023-04-08T06:14:36;100471.84;;;2.57;100.00
45872;BME280;32333;55.844;-3.210;2023-04-08T06:17:04;100470.30;;;2.28;100.00
45872;BME280;32333;55.844;-3.210;2023-04-08T06:19:31;100471.73;;;1.16;100.00
45872;BME280;32333;55.844;-3.210;2023-04-08T06:21:59;100469.81;;;2.15;100.00
45872;BME280;32333;55.844;-3.210;2023-04-08T06:24:28;100476.79;;;1.59;100.00
45872;BME280;32333;55.844;-3.210;2023-04-08T06:26:55;100477.60;;;1.81;100.00
45872;BME280;32333;55.844;-3.210;2023-04-08T06:29:23;100473.82;;;2.46;100.00
45872;BME280;32333;55.844;-3.210;2023-04-08T06:31:52;100471.99;;;2.77;100.00
45872;BME280;32333;55.844;-3.210;2023-04-08T06:34:19;100474.57;;;2.88;100.00
45872;BME280;32333;55.844;-3.210;2023-04-08T06:36:47;100475.23;;;3.69;100.00
45872;BME280;32333;55.844;-3.210;2023-04-08T06:39:15;100483.64;;;2.96;100.00
45872;BME280;32333;55.844;-3.210;2023-04-08T06:41:42;100483.74;;;3.68;100.00
45872;BME280;32333;55.844;-3.210;2023-04-08T06:44:36;100485.68;;;4.12;100.00
45872;BME280;32333;55.844;-3.210;2023-04-08T06:47:03;100486.96;;;3.52;100.00
45872;BME280;32333;55.844;-3.210;2023-04-08T06:49:30;100485.24;;;4.81;100.00
45872;BME280;32333;55.844;-3.210;2023-04-08T06:51:58;100483.78;;;4.29;100.00
45872;BME280;32333;55.844;-3.210;2023-04-08T06:54:25;100483.71;;;4.56;100.00
45872;BME280;32333;55.844;-3.210;2023-04-08T06:56:52;100481.69;;;4.42;100.00
45872;BME280;32333;55.844;-3.210;2023-04-08T06:59:20;100484.25;;;4.78;100.00
45872;BME280;32333;55.844;-3.210;2023-04-08T07:01:47;100485.29;;;6.12;100.00
45872;BME280;32333;55.844;-3.210;2023-04-08T07:04:15;100490.20;;;5.97;100.00
45872;BME280;32333;55.844;-3.210;2023-04-08T07:06:42;100492.67;;;6.14;100.00
45872;BME280;32333;55.844;-3.210;2023-04-08T07:09:10;100492.06;;;6.65;100.00
45872;BME280;32333;55.844;-3.210;2023-04-08T07:11:37;100492.16;;;7.06;100.00
45872;BME280;32333;55.844;-3.210;2023-04-08T07:14:36;100500.34;;;6.08;100.00
45872;BME280;32333;55.844;-3.210;2023-04-08T07:17:03;100498.85;;;6.51;100.00
45872;BME280;32333;55.844;-3.210;2023-04-08T07:19:31;100504.35;;;7.72;100.00
45872;BME280;32333;55.844;-3.210;2023-04-08T07:21:59;100505.80;;;7.58;100.00
45872;BME280;32333;55.844;-3.210;2023-04-08T07:24:26;100505.77;;;7.03;100.00
45872;BME280;32333;55.844;-3.210;2023-04-08T07:26:54;100509.59;;;8.01;100.00
45872;BME280;32333;55.844;-3.210;2023-04-08T07:29:21;100511.98;;;8.34;100.00
45872;BME280;32333;55.844;-3.210;2023-04-08T07:31:50;100514.06;;;7.94;100.00
45872;BME280;32333;55.844;-3.210;2023-04-08T07:34:17;100513.09;;;6.84;100.00
45872;BME280;32333;55.844;-3.210;2023-04-08T07:36:45;100516.48;;;7.88;100.00
45872;BME280;32333;55.844;-3.210;2023-04-08T07:39:14;100519.39;;;6.62;100.00
45872;BME280;32333;55.844;-3.210;2023-04-08T07:41:41;100518.38;;;7.99;100.00
45872;BME280;32333;55.844;-3.210;2023-04-08T07:44:35;100519.31;;;6.24;100.00
45872;BME280;32333;55.844;-3.210;2023-04-08T07:47:02;100521.66;;;7.28;100.00
45872;BME280;32333;55.844;-3.210;2023-04-08T07:49:30;100523.00;;;7.66;100.00
45872;BME280;32333;55.844;-3.210;2023-04-08T07:51:58;100520.26;;;8.42;100.00
45872;BME280;32333;55.844;-3.210;2023-04-08T07:54:25;100522.05;;;7.42;100.00
45872;BME280;32333;55.844;-3.210;2023-04-08T07:56:53;100524.58;;;7.83;100.00
45872;BME280;32333;55.844;-3.210;2023-04-08T07:59:20;100529.45;;;8.17;100.00
45872;BME280;32333;55.844;-3.210;2023-04-08T08:01:48;100527.84;;;7.57;100.00
45872;BME280;32333;55.844;-3.210;2023-04-08T08:04:15;100529.95;;;8.64;100.00
45872;BME280;32333;55.844;-3.210;2023-04-08T08:06:42;100523.57;;;8.57;100.00
45872;BME280;32333;55.844;-3.210;2023-04-08T08:09:11;100525.04;;;9.07;100.00
45872;BME280;32333;55.844;-3.210;2023-04-08T08:11:38;100516.96;;;9.65;100.00
45872;BME280;32333;55.844;-3.210;2023-04-08T08:14:35;100522.96;;;8.70;100.00
45872;BME280;32333;55.844;-3.210;2023-04-08T08:17:02;100515.03;;;9.14;100.00
45872;BME280;32333;55.844;-3.210;2023-04-08T08:19:30;100515.42;;;10.07;100.00
45872;BME280;32333;55.844;-3.210;2023-04-08T08:21:58;100511.78;;;9.67;100.00
45872;BME280;32333;55.844;-3.210;2023-04-08T08:24:25;100515.08;;;10.72;100.00
45872;BME280;32333;55.844;-3.210;2023-04-08T08:26:53;100513.16;;;9.85;100.00
45872;BME280;32333;55.844;-3.210;2023-04-08T08:29:20;100510.91;;;9.38;100.00
45872;BME280;32333;55.844;-3.210;2023-04-08T08:31:48;100508.77;;;9.83;100.00
45872;BME280;32333;55.844;-3.210;2023-04-08T08:34:15;100511.27;;;11.04;100.00
45872;BME280;32333;55.844;-3.210;2023-04-08T08:36:42;100511.04;;;10.60;100.00
45872;BME280;32333;55.844;-3.210;2023-04-08T08:39:11;100507.29;;;11.00;100.00
45872;BME280;32333;55.844;-3.210;2023-04-08T08:41:38;100508.82;;;11.14;100.00
45872;BME280;32333;55.844;-3.210;2023-04-08T08:44:35;100508.59;;;11.42;100.00
45872;BME280;32333;55.844;-3.210;2023-04-08T08:47:02;100507.50;;;9.72;100.00
45872;BME280;32333;55.844;-3.210;2023-04-08T08:49:30;100502.24;;;11.90;100.00
45872;BME280;32333;55.844;-3.210;2023-04-08T08:51:59;100501.18;;;11.55;100.00
45872;BME280;32333;55.844;-3.210;2023-04-08T08:54:26;100498.69;;;12.39;96.43
45872;BME280;32333;55.844;-3.210;2023-04-08T08:56:53;100498.10;;;9.44;100.00
45872;BME280;32333;55.844;-3.210;2023-04-08T08:59:21;100494.94;;;10.86;100.00
45872;BME280;32333;55.844;-3.210;2023-04-08T09:01:49;100495.44;;;10.47;100.00
45872;BME280;32333;55.844;-3.210;2023-04-08T09:04:17;100497.31;;;11.48;100.00
45872;BME280;32333;55.844;-3.210;2023-04-08T09:06:47;100494.98;;;11.90;100.00
45872;BME280;32333;55.844;-3.210;2023-04-08T09:09:15;100496.96;;;11.91;99.33
45872;BME280;32333;55.844;-3.210;2023-04-08T09:11:44;100498.81;;;11.92;92.37
45872;BME280;32333;55.844;-3.210;2023-04-08T09:14:36;100496.51;;;12.22;93.21
45872;BME280;32333;55.844;-3.210;2023-04-08T09:17:04;100494.69;;;12.74;87.58
45872;BME280;32333;55.844;-3.210;2023-04-08T09:19:32;100490.59;;;12.51;82.11
45872;BME280;32333;55.844;-3.210;2023-04-08T09:22:07;100494.41;;;12.64;85.52
45872;BME280;32333;55.844;-3.210;2023-04-08T09:24:36;100492.25;;;12.84;80.99
45872;BME280;32333;55.844;-3.210;2023-04-08T09:27:04;100496.54;;;10.38;85.91
45872;BME280;32333;55.844;-3.210;2023-04-08T09:29:32;100494.65;;;12.59;82.03
45872;BME280;32333;55.844;-3.210;2023-04-08T09:32:00;100495.27;;;10.42;98.41
45872;BME280;32333;55.844;-3.210;2023-04-08T09:34:28;100495.84;;;12.08;89.30
45872;BME280;32333;55.844;-3.210;2023-04-08T09:36:57;100494.56;;;12.47;80.75
45872;BME280;32333;55.844;-3.210;2023-04-08T09:39:25;100488.41;;;13.91;72.96
45872;BME280;32333;55.844;-3.210;2023-04-08T09:41:57;100492.47;;;12.74;68.12
45872;BME280;32333;55.844;-3.210;2023-04-08T09:44:37;100490.53;;;14.61;67.24
45872;BME280;32333;55.844;-3.210;2023-04-08T09:47:11;100489.32;;;14.41;65.98
45872;BME280;32333;55.844;-3.210;2023-04-08T09:49:48;100487.46;;;13.53;68.10
45872;BME280;32333;55.844;-3.210;2023-04-08T09:52:23;100488.44;;;13.90;68.56
45872;BME280;32333;55.844;-3.210;2023-04-08T09:54:56;100489.28;;;12.63;70.66
45872;BME280;32333;55.844;-3.210;2023-04-08T09:57:39;100491.90;;;11.40;82.34
45872;BME280;32333;55.844;-3.210;2023-04-08T10:00:10;100496.04;;;13.13;73.86
45872;BME280;32333;55.844;-3.210;2023-04-08T10:02:46;100492.70;;;10.45;87.25
45872;BME280;32333;55.844;-3.210;2023-04-08T10:05:16;100495.18;;;11.60;85.83
45872;BME280;32333;55.844;-3.210;2023-04-08T10:07:44;100495.31;;;12.67;82.79
45872;BME280;32333;55.844;-3.210;2023-04-08T10:10:12;100487.08;;;12.93;72.79
45872;BME280;32333;55.844;-3.210;2023-04-08T10:14:35;100483.95;;;14.13;68.50
45872;BME280;32333;55.844;-3.210;2023-04-08T10:17:34;100481.74;;;15.38;63.42
45872;BME280;32333;55.844;-3.210;2023-04-08T10:20:03;100481.51;;;14.78;61.26
45872;BME280;32333;55.844;-3.210;2023-04-08T10:22:46;100478.38;;;16.30;58.14
45872;BME280;32333;55.844;-3.210;2023-04-08T10:25:32;100478.53;;;13.81;63.68
45872;BME280;32333;55.844;-3.210;2023-04-08T10:27:59;100479.32;;;15.66;56.77
45872;BME280;32333;55.844;-3.210;2023-04-08T10:30:42;100482.18;;;13.61;64.30
45872;BME280;32333;55.844;-3.210;2023-04-08T10:33:12;100483.34;;;12.09;70.07
45872;BME280;32333;55.844;-3.210;2023-04-08T10:35:42;100473.76;;;13.95;68.41
45872;BME280;32333;55.844;-3.210;2023-04-08T10:38:11;100472.80;;;14.49;66.49
45872;BME280;32333;55.844;-3.210;2023-04-08T10:40:40;100474.83;;;14.23;66.52
45872;BME280;32333;55.844;-3.210;2023-04-08T10:44:36;100473.78;;;14.42;64.10
45872;BME280;32333;55.844;-3.210;2023-04-08T10:47:03;100467.61;;;14.59;62.28
45872;BME280;32333;55.844;-3.210;2023-04-08T10:49:32;100470.74;;;14.10;60.86
45872;BME280;32333;55.844;-3.210;2023-04-08T10:52:00;100466.47;;;15.17;57.92
45872;BME280;32333;55.844;-3.210;2023-04-08T10:54:27;100463.84;;;15.03;60.64
45872;BME280;32333;55.844;-3.210;2023-04-08T10:56:55;100466.97;;;15.15;60.22
45872;BME280;32333;55.844;-3.210;2023-04-08T10:59:27;100466.53;;;13.71;62.12
45872;BME280;32333;55.844;-3.210;2023-04-08T11:01:56;100463.50;;;14.84;57.48
45872;BME280;32333;55.844;-3.210;2023-04-08T11:04:24;100465.39;;;13.98;64.74
45872;BME280;32333;55.844;-3.210;2023-04-08T11:06:52;100464.77;;;13.40;59.39
45872;BME280;32333;55.844;-3.210;2023-04-08T11:09:19;100464.01;;;14.09;55.96
45872;BME280;32333;55.844;-3.210;2023-04-08T11:11:47;100464.07;;;14.44;56.62
45872;BME280;32333;55.844;-3.210;2023-04-08T11:14:35;100463.94;;;14.01;55.92
45872;BME280;32333;55.844;-3.210;2023-04-08T11:17:03;100456.54;;;15.03;53.99
45872;BME280;32333;55.844;-3.210;2023-04-08T11:19:31;100451.19;;;15.69;51.63
45872;BME280;32333;55.844;-3.210;2023-04-08T11:21:59;100448.02;;;15.35;51.35
45872;BME280;32333;55.844;-3.210;2023-04-08T11:24:26;100451.36;;;14.56;51.70
45872;BME280;32333;55.844;-3.210;2023-04-08T11:26:54;100449.05;;;14.70;54.41
45872;BME280;32333;55.844;-3.210;2023-04-08T11:29:22;100452.44;;;13.83;56.26
45872;BME280;32333;55.844;-3.210;2023-04-08T11:31:50;100440.98;;;13.99;57.77
45872;BME280;32333;55.844;-3.210;2023-04-08T11:34:22;100450.86;;;11.44;70.60
45872;BME280;32333;55.844;-3.210;2023-04-08T11:36:50;100441.22;;;13.43;63.84
45872;BME280;32333;55.844;-3.210;2023-04-08T11:39:17;100441.91;;;11.93;64.17
45872;BME280;32333;55.844;-3.210;2023-04-08T11:41:48;100442.28;;;12.16;69.80
45872;BME280;32333;55.844;-3.210;2023-04-08T11:44:35;100436.64;;;12.73;65.17
45872;BME280;32333;55.844;-3.210;2023-04-08T11:47:02;100437.30;;;13.52;60.21
45872;BME280;32333;55.844;-3.210;2023-04-08T11:49:43;100437.78;;;13.30;60.63
45872;BME280;32333;55.844;-3.210;2023-04-08T11:52:11;100434.63;;;13.62;64.51
45872;BME280;32333;55.844;-3.210;2023-04-08T11:54:41;100435.47;;;12.71;69.30
45872;BME280;32333;55.844;-3.210;2023-04-08T11:57:09;100434.97;;;12.43;67.68
45872;BME280;32333;55.844;-3.210;2023-04-08T11:59:36;100431.49;;;12.72;68.58
45872;BME280;32333;55.844;-3.210;2023-04-08T12:02:04;100430.18;;;12.42;70.35
45872;BME280;32333;55.844;-3.210;2023-04-08T12:04:32;100433.39;;;11.29;71.13
45872;BME280;32333;55.844;-3.210;2023-04-08T12:06:59;100424.43;;;13.98;64.03
45872;BME280;32333;55.844;-3.210;2023-04-08T12:09:27;100424.29;;;14.88;60.76
45872;BME280;32333;55.844;-3.210;2023-04-08T12:11:55;100419.34;;;14.48;61.24
45872;BME280;32333;55.844;-3.210;2023-04-08T12:14:35;100418.74;;;13.19;61.55
45872;BME280;32333;55.844;-3.210;2023-04-08T12:17:03;100424.13;;;12.25;68.07
45872;BME280;32333;55.844;-3.210;2023-04-08T12:19:30;100417.29;;;12.38;68.72
45872;BME280;32333;55.844;-3.210;2023-04-08T12:21:58;100417.96;;;12.46;71.48
45872;BME280;32333;55.844;-3.210;2023-04-08T12:24:26;100403.72;;;10.75;78.37
45872;BME280;32333;55.844;-3.210;2023-04-08T12:26:54;100415.89;;;11.23;75.20
45872;BME280;32333;55.844;-3.210;2023-04-08T12:29:22;100420.71;;;11.20;68.31
45872;BME280;32333;55.844;-3.210;2023-04-08T12:31:49;100419.36;;;11.10;70.78
45872;BME280;32333;55.844;-3.210;2023-04-08T12:34:17;100425.39;;;13.04;62.17
45872;BME280;32333;55.844;-3.210;2023-04-08T12:36:45;100422.14;;;13.05;62.34
45872;BME280;32333;55.844;-3.210;2023-04-08T12:39:13;100412.09;;;13.63;59.83
45872;BME280;32333;55.844;-3.210;2023-04-08T12:41:41;100420.64;;;11.41;64.87
45872;BME280;32333;55.844;-3.210;2023-04-08T12:44:36;100415.82;;;14.30;56.35
45872;BME280;32333;55.844;-3.210;2023-04-08T12:47:03;100409.96;;;14.65;56.37
45872;BME280;32333;55.844;-3.210;2023-04-08T12:49:31;100404.97;;;13.66;56.01
45872;BME280;32333;55.844;-3.210;2023-04-08T12:51:59;100405.67;;;13.74;57.28
45872;BME280;32333;55.844;-3.210;2023-04-08T12:54:26;100402.63;;;13.69;56.66
45872;BME280;32333;55.844;-3.210;2023-04-08T12:56:53;100399.56;;;13.65;55.59
45872;BME280;32333;55.844;-3.210;2023-04-08T12:59:26;100400.34;;;13.91;52.99
45872;BME280;32333;55.844;-3.210;2023-04-08T13:01:55;100398.08;;;14.67;52.24
45872;BME280;32333;55.844;-3.210;2023-04-08T13:04:29;100394.81;;;14.98;52.76
45872;BME280;32333;55.844;-3.210;2023-04-08T13:06:59;100399.88;;;13.10;52.76